createdAt,value
2018-01-11T00:02:17.362Z,5.47
2018-01-11T00:05:18.722Z,6.37
2018-01-11T00:08:20.024Z,6.00
2018-01-11T00:11:21.414Z,6.33
2018-01-11T00:14:22.777Z,5.80
2018-01-11T00:17:24.849Z,6.13
2018-01-11T00:20:26.906Z,6.10
2018-01-11T00:23:28.284Z,6.13
2018-01-11T00:26:29.657Z,7.20
2018-01-11T00:29:31.024Z,7.70
2018-01-11T00:32:32.405Z,6.60
2018-01-11T00:35:33.788Z,6.60
2018-01-11T00:38:35.127Z,5.87
2018-01-11T00:41:37.184Z,5.63
2018-01-11T00:44:39.288Z,6.23
2018-01-11T00:47:40.701Z,5.80
2018-01-11T00:50:42.856Z,5.40
2018-01-11T00:53:51.319Z,5.70
2018-01-11T00:56:52.681Z,4.87
2018-01-11T00:59:54.081Z,5.13
2018-01-11T01:02:55.420Z,4.90
2018-01-11T01:05:56.784Z,4.70
2018-01-11T01:08:58.917Z,4.97
2018-01-11T01:12:00.279Z,5.27
2018-01-11T01:15:01.654Z,5.27
2018-01-11T01:18:03.816Z,4.90
2018-01-11T01:21:05.228Z,4.60
2018-01-11T01:24:06.558Z,4.10
2018-01-11T01:27:07.943Z,4.80
2018-01-11T01:30:09.328Z,4.23
2018-01-11T01:33:11.447Z,4.50
2018-01-11T01:36:12.871Z,4.40
2018-01-11T01:39:14.205Z,6.00
2018-01-11T01:42:16.290Z,5.20
2018-01-11T01:45:17.632Z,5.47
2018-01-11T01:48:38.343Z,4.80
2018-01-11T01:51:39.738Z,4.97
2018-01-11T01:54:41.153Z,4.80
2018-01-11T01:57:43.243Z,6.17
2018-01-11T02:00:44.624Z,4.70
2018-01-11T02:03:46.028Z,4.60
2018-01-11T02:06:47.436Z,5.20
2018-01-11T02:09:48.769Z,5.23
2018-01-11T02:12:50.550Z,5.60
2018-01-11T02:15:51.898Z,4.27
2018-01-11T02:18:53.272Z,5.07
2018-01-11T02:21:55.374Z,5.00
2018-01-11T02:24:56.709Z,5.30
2018-01-11T02:27:58.062Z,5.40
2018-01-11T02:30:59.420Z,6.00
2018-01-11T02:34:00.825Z,5.20
2018-01-11T02:37:02.851Z,4.83
2018-01-11T02:40:04.239Z,5.40
2018-01-11T02:43:06.378Z,5.53
2018-01-11T02:46:07.735Z,5.50
2018-01-11T02:49:09.105Z,6.73
2018-01-11T02:52:10.421Z,6.50
2018-01-11T02:55:12.587Z,6.50
2018-01-11T02:58:13.954Z,6.23
2018-01-11T03:01:15.310Z,6.00
2018-01-11T03:04:16.667Z,6.10
2018-01-11T03:07:18.062Z,6.07
2018-01-11T03:10:19.444Z,5.80
2018-01-11T03:13:20.848Z,5.70
2018-01-11T03:16:22.949Z,5.57
2018-01-11T03:19:24.326Z,5.27
2018-01-11T03:22:25.710Z,6.00
2018-01-11T03:25:27.818Z,5.57
2018-01-11T03:28:29.205Z,5.00
2018-01-11T03:31:30.594Z,4.80
2018-01-11T03:34:31.979Z,4.77
2018-01-11T03:37:33.420Z,5.27
2018-01-11T03:40:34.765Z,5.50
2018-01-11T03:43:36.119Z,5.20
2018-01-11T03:46:37.514Z,5.47
2018-01-11T03:49:39.293Z,4.70
2018-01-11T03:52:40.704Z,6.37
2018-01-11T03:55:42.033Z,4.40
2018-01-11T03:58:43.436Z,4.50
2018-01-11T04:01:44.770Z,4.83
2018-01-11T04:04:46.125Z,4.83
2018-01-11T04:07:47.470Z,4.90
2018-01-11T04:10:48.809Z,5.17
2018-01-11T04:13:50.917Z,5.17
2018-01-11T04:16:53.037Z,4.70
2018-01-11T04:19:54.410Z,5.53
2018-01-11T04:22:55.763Z,4.70
2018-01-11T04:25:57.161Z,4.17
2018-01-11T04:28:58.531Z,4.50
2018-01-11T04:31:59.831Z,5.00
2018-01-11T04:35:01.201Z,5.30
2018-01-11T04:38:02.519Z,5.07
2018-01-11T04:41:03.900Z,4.70
2018-01-11T04:44:05.262Z,5.33
2018-01-11T04:47:06.665Z,5.97
2018-01-11T04:50:08.046Z,4.67
2018-01-11T04:53:10.197Z,5.27
2018-01-11T04:56:11.604Z,6.37
2018-01-11T04:59:12.960Z,5.30
2018-01-11T05:02:14.360Z,6.00
2018-01-11T05:05:16.467Z,5.23
2018-01-11T05:08:17.843Z,5.87
2018-01-11T05:11:19.195Z,5.00
2018-01-11T05:14:20.543Z,5.97
2018-01-11T05:17:22.618Z,5.60
2018-01-11T05:20:23.972Z,5.83
2018-01-11T05:23:25.343Z,5.83
2018-01-11T05:26:27.447Z,6.37
2018-01-11T05:29:28.847Z,14.80
2018-01-11T05:32:30.159Z,11.90
2018-01-11T05:35:32.263Z,7.03
2018-01-11T05:38:33.602Z,6.90
2018-01-11T05:41:34.937Z,6.97
2018-01-11T05:44:36.244Z,7.07
2018-01-11T05:47:38.308Z,6.40
2018-01-11T05:50:40.548Z,7.03
2018-01-11T05:53:41.871Z,8.00
2018-01-11T05:56:43.268Z,8.80
2018-01-11T05:59:45.346Z,7.20
2018-01-11T06:02:47.534Z,6.77
2018-01-11T06:05:48.921Z,7.00
2018-01-11T06:08:50.273Z,6.97
2018-01-11T06:11:51.659Z,6.97
2018-01-11T06:14:53.755Z,7.87
2018-01-11T06:17:55.149Z,6.53
2018-01-11T06:20:56.534Z,7.40
2018-01-11T06:23:58.667Z,7.80
2018-01-11T06:27:00.000Z,6.70
2018-01-11T06:30:01.363Z,7.67
2018-01-11T06:33:03.442Z,7.13
2018-01-11T06:36:04.836Z,7.83
2018-01-11T06:39:06.238Z,7.67
2018-01-11T06:42:07.618Z,7.40
2018-01-11T06:45:09.772Z,7.23
2018-01-11T06:48:11.146Z,7.13
2018-01-11T06:51:13.330Z,8.53
2018-01-11T06:54:14.762Z,8.00
2018-01-11T06:57:16.878Z,9.27
2018-01-11T07:00:18.252Z,8.33
2018-01-11T07:03:19.581Z,8.90
2018-01-11T07:06:20.935Z,8.70
2018-01-11T07:09:22.287Z,7.73
2018-01-11T07:12:23.661Z,9.57
2018-01-11T07:15:25.014Z,9.70
2018-01-11T07:18:26.390Z,9.07
2018-01-11T07:21:27.771Z,9.10
2018-01-11T07:24:29.245Z,9.17
2018-01-11T07:27:30.636Z,9.13
2018-01-11T07:30:32.748Z,9.67
2018-01-11T07:33:34.119Z,8.80
2018-01-11T07:36:35.521Z,9.27
2018-01-11T07:39:36.892Z,9.90
2018-01-11T07:42:38.360Z,9.20
2018-01-11T07:45:40.531Z,8.90
2018-01-11T07:48:41.922Z,8.97
2018-01-11T07:51:43.337Z,9.10
2018-01-11T07:54:45.447Z,9.13
2018-01-11T07:57:47.574Z,8.70
2018-01-11T08:00:49.677Z,9.80
2018-01-11T08:03:51.012Z,9.87
2018-01-11T08:06:52.369Z,26.30
2018-01-11T08:09:53.750Z,18.10
2018-01-11T08:12:55.035Z,8.90
2018-01-11T08:15:56.407Z,8.97
2018-01-11T08:18:57.671Z,8.50
2018-01-11T08:21:59.055Z,9.00
2018-01-11T08:25:00.363Z,9.60
2018-01-11T08:28:01.709Z,8.60
2018-01-11T08:31:03.015Z,8.50
2018-01-11T08:34:04.418Z,9.77
2018-01-11T08:37:05.698Z,9.07
2018-01-11T08:40:07.006Z,8.90
2018-01-11T08:46:24.619Z,10.60
2018-01-11T08:49:26.022Z,9.70
2018-01-11T08:52:28.094Z,10.37
2018-01-11T08:55:29.430Z,8.70
2018-01-11T08:58:30.763Z,10.07
2018-01-11T09:01:32.088Z,10.13
2018-01-11T09:04:33.395Z,11.53
2018-01-11T09:07:35.466Z,11.53
2018-01-11T09:10:37.565Z,11.43
2018-01-11T09:13:38.873Z,11.00
2018-01-11T09:16:40.191Z,10.07
2018-01-11T09:19:41.574Z,11.30
2018-01-11T09:22:42.869Z,11.63
2018-01-11T09:25:44.241Z,12.50
2018-01-11T09:28:45.543Z,12.50
2018-01-11T09:31:47.730Z,11.50
2018-01-11T09:34:49.106Z,12.00
2018-01-11T09:37:50.449Z,10.67
2018-01-11T09:40:51.800Z,11.90
2018-01-11T09:43:53.116Z,12.37
2018-01-11T09:46:54.452Z,9.90
2018-01-11T09:49:56.559Z,11.57
2018-01-11T09:52:57.926Z,12.50
2018-01-11T09:55:59.267Z,10.43
2018-01-11T09:59:00.634Z,11.20
2018-01-11T10:02:01.968Z,11.77
2018-01-11T10:05:03.290Z,11.63
2018-01-11T10:08:04.642Z,11.40
2018-01-11T10:11:05.959Z,11.53
2018-01-11T10:14:07.299Z,11.70
2018-01-11T10:17:08.623Z,11.20
2018-01-11T10:20:09.976Z,11.63
2018-01-11T10:23:11.273Z,12.53
2018-01-11T10:26:13.348Z,13.17
2018-01-11T10:29:15.408Z,14.07
2018-01-11T10:32:17.490Z,14.10
2018-01-11T10:35:18.824Z,14.47
2018-01-11T10:38:20.878Z,15.47
2018-01-11T10:41:22.979Z,14.07
2018-01-11T10:44:25.066Z,16.43
2018-01-11T10:47:26.422Z,14.93
2018-01-11T10:50:27.739Z,15.70
2018-01-11T10:53:29.090Z,16.90
2018-01-11T10:56:30.405Z,15.27
2018-01-11T10:59:32.474Z,16.17
2018-01-11T11:06:09.892Z,16.13
2018-01-11T11:09:11.221Z,15.13
2018-01-11T11:12:12.534Z,17.10
2018-01-11T11:15:13.877Z,17.90
2018-01-11T11:18:15.239Z,16.80
2018-01-11T11:21:16.545Z,18.10
2018-01-11T11:24:17.862Z,17.33
2018-01-11T11:27:19.184Z,16.80
2018-01-11T11:30:20.519Z,16.30
2018-01-11T11:33:21.847Z,16.37
2018-01-11T11:36:23.921Z,17.50
2018-01-11T11:39:25.996Z,16.40
2018-01-11T11:42:28.050Z,17.03
2018-01-11T11:45:30.133Z,16.53
2018-01-11T11:48:31.395Z,16.20
2018-01-11T11:51:32.740Z,16.07
2018-01-11T11:54:34.053Z,15.93
2018-01-11T11:57:35.404Z,16.57
2018-01-11T12:00:36.753Z,15.23
2018-01-11T12:03:38.035Z,16.97
2018-01-11T12:09:48.266Z,16.87
2018-01-11T12:12:49.670Z,14.83
2018-01-11T12:15:52.690Z,16.37
2018-01-11T12:18:54.013Z,15.37
2018-01-11T12:21:55.362Z,17.33
2018-01-11T12:24:56.698Z,15.90
2018-01-11T12:27:58.048Z,16.07
2018-01-11T12:30:59.434Z,15.63
2018-01-11T12:34:00.758Z,16.27
2018-01-11T12:37:02.103Z,17.20
2018-01-11T12:40:03.434Z,14.87
2018-01-11T12:43:05.499Z,18.43
2018-01-11T12:49:36.806Z,15.23
2018-01-11T12:52:38.150Z,17.17
2018-01-11T12:55:39.435Z,16.50
2018-01-11T12:58:40.786Z,16.80
2018-01-11T13:01:42.808Z,18.70
2018-01-11T13:04:44.149Z,17.43
2018-01-11T13:07:45.496Z,15.40
2018-01-11T13:10:46.990Z,15.40
2018-01-11T13:13:48.283Z,17.03
2018-01-11T13:16:50.374Z,16.90
2018-01-11T13:19:51.745Z,16.67
2018-01-11T13:22:53.030Z,16.63
2018-01-11T13:25:54.399Z,16.63
2018-01-11T13:28:56.450Z,16.80
2018-01-11T13:31:57.763Z,17.00
2018-01-11T13:34:59.035Z,17.10
2018-01-11T13:38:00.347Z,17.80
2018-01-11T13:41:01.679Z,17.90
2018-01-11T13:44:03.028Z,16.87
2018-01-11T13:47:05.091Z,18.63
2018-01-11T13:50:07.143Z,17.70
2018-01-11T13:53:08.566Z,17.40
2018-01-11T13:56:09.887Z,18.73
2018-01-11T13:59:11.454Z,18.43
2018-01-11T14:02:12.787Z,18.33
2018-01-11T14:05:14.150Z,18.20
2018-01-11T14:08:15.502Z,17.13
2018-01-11T14:11:16.823Z,16.80
2018-01-11T14:14:18.142Z,17.97
2018-01-11T14:17:19.442Z,18.63
2018-01-11T14:20:20.809Z,20.47
2018-01-11T14:23:22.134Z,18.63
2018-01-11T14:26:23.463Z,108.17
2018-01-11T14:29:25.600Z,34.10
2018-01-11T14:32:26.928Z,20.67
2018-01-11T14:35:28.633Z,19.03
2018-01-11T14:38:29.991Z,17.93
2018-01-11T14:41:31.354Z,18.70
2018-01-11T14:44:32.737Z,17.70
2018-01-11T14:47:34.126Z,18.10
2018-01-11T14:50:36.229Z,18.40
2018-01-11T14:53:37.599Z,18.40
2018-01-11T14:56:39.678Z,16.23
2018-01-11T14:59:41.051Z,17.63
2018-01-11T15:02:42.399Z,17.27
2018-01-11T15:05:43.785Z,18.50
2018-01-11T15:08:45.138Z,17.87
2018-01-11T15:11:46.457Z,19.10
2018-01-11T15:14:47.826Z,20.40
2018-01-11T15:17:49.915Z,17.17
2018-01-11T15:20:51.254Z,16.93
2018-01-11T15:23:52.642Z,18.53
2018-01-11T15:26:54.027Z,18.27
2018-01-11T15:29:55.394Z,16.63
2018-01-11T15:32:57.448Z,16.93
2018-01-11T15:35:58.816Z,17.93
2018-01-11T15:39:00.942Z,16.57
2018-01-11T15:42:02.302Z,16.07
2018-01-11T15:45:03.680Z,15.67
2018-01-11T15:48:05.737Z,16.40
2018-01-11T15:51:07.821Z,17.87
2018-01-11T15:54:09.950Z,16.33
2018-01-11T15:57:11.279Z,17.90
2018-01-11T16:00:12.658Z,17.10
2018-01-11T16:03:14.031Z,16.07
2018-01-11T16:06:16.143Z,15.40
2018-01-11T16:09:17.478Z,16.83
2018-01-11T16:12:18.834Z,14.80
2018-01-11T16:15:20.242Z,16.33
2018-01-11T16:18:21.603Z,15.57
2018-01-11T16:21:23.699Z,21.00
2018-01-11T16:24:25.037Z,15.90
2018-01-11T16:27:26.410Z,16.47
2018-01-11T16:30:27.783Z,15.90
2018-01-11T16:33:29.150Z,15.83
2018-01-11T16:36:30.486Z,15.10
2018-01-11T16:39:31.864Z,15.93
2018-01-11T16:42:33.264Z,15.07
2018-01-11T16:45:34.586Z,16.77
2018-01-11T16:48:35.975Z,16.63
2018-01-11T16:51:37.334Z,14.93
2018-01-11T16:54:38.691Z,17.67
2018-01-11T16:57:40.107Z,15.93
2018-01-11T17:00:41.466Z,16.60
2018-01-11T17:03:42.867Z,15.60
2018-01-11T17:06:44.273Z,15.80
2018-01-11T17:09:46.365Z,17.10
2018-01-11T17:12:47.748Z,15.70
2018-01-11T17:15:49.839Z,16.63
2018-01-11T17:18:51.198Z,15.57
2018-01-11T17:21:52.554Z,16.60
2018-01-11T17:24:53.883Z,15.83
2018-01-11T17:27:55.342Z,16.80
2018-01-11T17:30:56.702Z,16.23
2018-01-11T17:33:58.042Z,17.90
2018-01-11T17:36:59.391Z,16.07
2018-01-11T17:40:00.771Z,17.93
2018-01-11T17:43:02.107Z,16.97
2018-01-11T17:46:03.446Z,18.43
2018-01-11T17:53:10.048Z,17.13
2018-01-11T17:56:11.425Z,18.77
2018-01-11T17:59:12.790Z,20.43
2018-01-11T18:02:14.168Z,16.70
2018-01-11T18:05:16.219Z,18.83
2018-01-11T18:08:18.374Z,23.83
2018-01-11T18:11:19.765Z,24.57
2018-01-11T18:14:21.122Z,21.60
2018-01-11T18:17:23.270Z,21.50
2018-01-11T18:20:25.406Z,20.17
2018-01-11T18:23:26.748Z,20.53
2018-01-11T18:26:28.145Z,21.47
2018-01-11T18:29:30.226Z,20.60
2018-01-11T18:32:31.586Z,20.80
2018-01-11T18:35:33.068Z,23.07
2018-01-11T18:38:34.607Z,21.67
2018-01-11T18:41:35.976Z,20.83
2018-01-11T18:44:37.743Z,21.20
2018-01-11T18:47:39.871Z,20.70
2018-01-11T18:50:41.267Z,22.70
2018-01-11T18:53:43.715Z,20.50
2018-01-11T18:56:46.948Z,20.70
2018-01-11T18:59:48.826Z,20.97
2018-01-11T19:02:50.195Z,23.80
2018-01-11T19:05:53.242Z,21.53
2018-01-11T19:08:55.352Z,20.60
2018-01-11T19:11:58.457Z,22.57
2018-01-11T19:14:59.818Z,23.87
2018-01-11T19:18:01.212Z,24.27
2018-01-11T19:21:02.634Z,25.13
2018-01-11T19:24:04.134Z,24.20
2018-01-11T19:27:05.510Z,23.80
2018-01-11T19:30:06.884Z,22.77
2018-01-11T19:33:08.274Z,24.80
2018-01-11T19:36:09.611Z,22.83
2018-01-11T19:39:10.960Z,24.60
2018-01-11T19:42:12.389Z,24.83
2018-01-11T19:45:13.766Z,23.10
2018-01-11T19:48:15.134Z,23.37
2018-01-11T19:51:16.786Z,25.07
2018-01-11T19:54:18.178Z,25.27
2018-01-11T19:57:19.679Z,25.93
2018-01-11T20:00:21.097Z,26.30
2018-01-11T20:03:22.451Z,25.67
2018-01-11T20:06:23.898Z,25.90
2018-01-11T20:09:25.324Z,26.30
2018-01-11T20:12:27.802Z,22.80
2018-01-11T20:15:29.273Z,26.10
2018-01-11T20:18:30.857Z,27.80
2018-01-11T20:21:33.038Z,27.27
2018-01-11T20:24:35.549Z,25.37
2018-01-11T20:27:37.660Z,24.40
2018-01-11T20:30:40.283Z,30.00
2018-01-11T20:33:41.678Z,25.47
2018-01-11T20:36:43.175Z,24.90
2018-01-11T20:39:45.664Z,24.50
2018-01-11T20:42:47.129Z,23.47
2018-01-11T20:45:49.597Z,24.03
2018-01-11T20:48:51.827Z,24.77
2018-01-11T20:51:53.364Z,25.47
2018-01-11T20:54:54.700Z,24.50
2018-01-11T20:57:56.196Z,25.30
2018-01-11T21:00:58.286Z,25.53
2018-01-11T21:03:59.661Z,24.70
2018-01-11T21:07:01.057Z,25.50
2018-01-11T21:10:02.525Z,25.87
2018-01-11T21:13:03.977Z,25.57
2018-01-11T21:16:05.339Z,27.60
2018-01-11T21:19:07.207Z,25.53
2018-01-11T21:22:08.631Z,25.10
2018-01-11T21:25:10.078Z,26.80
2018-01-11T21:28:11.453Z,26.80
2018-01-11T21:31:12.859Z,25.70
2018-01-11T21:34:14.978Z,27.07
2018-01-11T21:37:16.620Z,28.03
2018-01-11T21:40:18.015Z,26.67
2018-01-11T21:43:19.800Z,26.87
2018-01-11T21:46:21.944Z,24.87
2018-01-11T21:49:23.423Z,27.53
2018-01-11T21:52:25.539Z,26.07
2018-01-11T21:55:26.876Z,26.80
2018-01-11T21:58:28.163Z,26.50
2018-01-11T22:01:29.468Z,24.33
2018-01-11T22:04:30.764Z,23.90
2018-01-11T22:07:32.233Z,27.80
2018-01-11T22:10:33.634Z,26.70
2018-01-11T22:13:35.018Z,26.30
2018-01-11T22:19:44.395Z,26.50
2018-01-11T22:22:45.735Z,26.10
2018-01-11T22:25:47.211Z,27.00
2018-01-11T22:28:49.434Z,25.90
2018-01-11T22:31:50.778Z,23.63
2018-01-11T22:34:52.100Z,25.97
2018-01-11T22:37:53.425Z,26.50
2018-01-11T22:40:55.507Z,26.27
2018-01-11T22:43:57.587Z,28.50
2018-01-11T22:46:58.924Z,26.07
2018-01-11T22:50:00.309Z,27.23
2018-01-11T22:53:02.634Z,24.97
2018-01-11T22:56:04.810Z,24.67
2018-01-11T22:59:07.001Z,23.20
2018-01-11T23:02:08.406Z,26.87
2018-01-11T23:05:09.780Z,29.37
2018-01-11T23:08:11.895Z,27.93
2018-01-11T23:11:19.462Z,29.77
2018-01-11T23:14:20.823Z,28.47
2018-01-11T23:17:22.260Z,28.50
2018-01-11T23:20:23.638Z,30.03
2018-01-11T23:23:25.030Z,27.73
2018-01-11T23:26:26.416Z,29.13
2018-01-11T23:29:27.757Z,28.37
2018-01-11T23:32:29.133Z,30.67
2018-01-11T23:35:31.173Z,30.20
2018-01-11T23:38:32.559Z,32.63
2018-01-11T23:41:33.910Z,29.57
2018-01-11T23:44:35.239Z,30.83
2018-01-11T23:47:36.625Z,28.43
2018-01-11T23:50:38.006Z,29.20
2018-01-11T23:53:39.375Z,29.13
2018-01-11T23:56:41.507Z,29.40
2018-01-11T23:59:43.615Z,28.53
